Time;durP1;ratioP1;P1;durP2;ratioP2;P2;SDS_P1;SDS_P2;PMS_P1;PMS_P2;Temp;Humidity;BMP_temperature;BMP_pressure;BME280_temperature;BME280_humidity;BME280_pressure;Samples;Min_cycle;Max_cycle;Signal;HPM_P1;HPM_P2
2022/08/17 00:01:51;;;;;;;;;14.50;13.00;;;;;22.60;60.85;100262.69;5082086;27;45410;-58
2022/08/17 00:04:18;;;;;;;;;16.25;15.00;;;;;22.60;60.28;100254.69;5060931;28;45462;-57
2022/08/17 00:06:43;;;;;;;;;16.00;15.50;;;;;22.60;60.10;100255.50;5081716;27;45435;-56
2022/08/17 00:09:09;;;;;;;;;18.00;15.00;;;;;22.60;60.32;100252.84;5072008;27;45369;-57
2022/08/17 00:11:37;;;;;;;;;17.00;14.50;;;;;22.62;60.21;100242.88;5081409;27;46360;-57
2022/08/17 00:14:07;;;;;;;;;15.50;14.00;;;;;22.63;59.93;100238.38;5065656;28;47331;-56
2022/08/17 00:16:35;;;;;;;;;14.50;12.00;;;;;22.62;60.38;100239.38;5072956;27;45726;-57
2022/08/17 00:19:04;;;;;;;;;11.25;10.00;;;;;22.61;60.00;100243.88;5068270;28;45548;-57
2022/08/17 00:21:31;;;;;;;;;15.00;13.25;;;;;22.61;60.24;100237.69;5073852;28;45311;-57
2022/08/17 00:23:58;;;;;;;;;15.75;14.00;;;;;22.63;59.82;100236.59;5087371;27;45415;-57
2022/08/17 00:26:24;;;;;;;;;15.75;13.75;;;;;22.63;60.24;100235.72;5074419;27;45750;-57
2022/08/17 00:28:50;;;;;;;;;12.50;11.50;;;;;22.64;59.56;100234.75;5068524;28;45253;-57
2022/08/17 00:31:17;;;;;;;;;11.75;11.75;;;;;22.61;59.69;100232.34;5076097;28;56000;-55
2022/08/17 00:33:44;;;;;;;;;14.75;14.50;;;;;22.59;59.64;100231.63;5063486;28;46340;-57
2022/08/17 00:36:11;;;;;;;;;18.25;16.50;;;;;22.58;59.98;100235.28;5080177;27;45794;-57
2022/08/17 00:38:37;;;;;;;;;14.00;14.00;;;;;22.57;59.95;100234.44;5079083;27;45454;-57
2022/08/17 00:41:09;;;;;;;;;19.50;15.00;;;;;22.57;59.90;100234.44;5069071;28;45543;-57
2022/08/17 00:43:38;;;;;;;;;16.00;13.75;;;;;22.58;59.99;100221.97;5085184;27;46290;-57
2022/08/17 00:46:13;;;;;;;;;13.75;13.25;;;;;22.58;59.89;100225.47;5066889;28;45284;-57
2022/08/17 00:48:41;;;;;;;;;16.00;13.00;;;;;22.58;59.77;100228.13;5063846;28;45365;-57
2022/08/17 00:51:28;;;;;;;;;13.00;12.75;;;;;22.56;59.45;100216.75;5075962;27;45391;-58
2022/08/17 00:54:18;;;;;;;;;13.00;11.75;;;;;22.52;59.80;100221.50;5062740;28;45399;-57
2022/08/17 00:56:49;;;;;;;;;17.00;14.25;;;;;22.46;59.60;100216.69;5067523;27;45370;-56
2022/08/17 00:59:21;;;;;;;;;14.75;13.00;;;;;22.44;59.70;100226.63;5077692;27;45302;-58
2022/08/17 01:01:48;;;;;;;;;15.25;11.75;;;;;22.42;60.02;100225.09;5079260;28;45413;-58
2022/08/17 01:04:14;;;;;;;;;13.50;11.25;;;;;22.41;59.55;100218.06;5067081;27;45603;-57
2022/08/17 01:06:40;;;;;;;;;12.50;12.50;;;;;22.42;60.27;100225.09;5074614;27;45386;-57
2022/08/17 01:09:07;;;;;;;;;15.75;13.75;;;;;22.42;60.19;100238.44;5071066;27;45473;-57
2022/08/17 01:11:35;;;;;;;;;15.25;14.50;;;;;22.44;60.05;100239.13;5063200;28;45546;-58
2022/08/17 01:14:00;;;;;;;;;15.50;13.75;;;;;22.45;60.39;100240.81;5077030;27;46354;-57
2022/08/17 01:16:28;;;;;;;;;13.75;13.00;;;;;22.45;60.38;100233.69;5081351;27;45193;-58
2022/08/17 01:18:58;;;;;;;;;13.75;13.75;;;;;22.43;59.68;100232.94;5078619;28;45413;-57
2022/08/17 01:21:45;;;;;;;;;16.00;14.00;;;;;22.45;60.07;100235.47;5053579;28;45478;-57
2022/08/17 01:24:11;;;;;;;;;18.25;15.75;;;;;22.45;60.41;100231.00;5079999;28;46232;-57
2022/08/17 01:26:37;;;;;;;;;19.00;16.00;;;;;22.48;60.16;100232.56;5067577;27;60065;-56
2022/08/17 01:29:04;;;;;;;;;19.50;15.25;;;;;22.49;60.13;100240.44;5088950;27;45408;-57
2022/08/17 01:31:36;;;;;;;;;18.75;16.25;;;;;22.50;60.00;100228.78;5067916;28;45458;-57
2022/08/17 01:34:05;;;;;;;;;16.00;14.75;;;;;22.51;60.29;100233.13;5071825;27;46320;-56
2022/08/17 01:36:31;;;;;;;;;12.00;12.00;;;;;22.49;60.25;100236.94;5076996;27;45796;-57
2022/08/17 01:38:56;;;;;;;;;15.00;14.00;;;;;22.48;59.73;100244.06;5073993;27;61736;-56
2022/08/17 01:41:22;;;;;;;;;17.75;16.00;;;;;22.47;59.81;100236.19;5078135;27;45339;-57
2022/08/17 01:43:53;;;;;;;;;20.00;15.75;;;;;22.47;60.31;100234.38;5072359;27;46139;-56
2022/08/17 01:46:26;;;;;;;;;17.00;15.00;;;;;22.48;60.23;100237.88;5078374;27;45394;-57
2022/08/17 01:48:52;;;;;;;;;20.50;16.50;;;;;22.50;59.92;100233.25;5087372;27;45359;-56
2022/08/17 01:51:18;;;;;;;;;17.50;13.25;;;;;22.51;59.72;100230.47;5065861;28;45445;-57
2022/08/17 01:53:48;;;;;;;;;16.00;13.50;;;;;22.51;60.33;100232.31;5063112;28;45907;-56
2022/08/17 01:56:17;;;;;;;;;17.25;16.25;;;;;22.52;60.03;100228.63;5078136;28;45584;-57
2022/08/17 01:58:42;;;;;;;;;16.75;13.00;;;;;22.50;59.63;100228.78;5078842;28;45406;-56
2022/08/17 02:01:09;;;;;;;;;13.00;13.00;;;;;22.51;60.21;100241.13;5078597;27;45371;-55
2022/08/17 02:03:35;;;;;;;;;14.50;13.75;;;;;22.48;60.08;100238.72;5089902;27;45446;-57
2022/08/17 02:06:01;;;;;;;;;16.00;14.50;;;;;22.47;59.92;100246.84;5076880;27;45619;-57
2022/08/17 02:08:27;;;;;;;;;17.75;15.75;;;;;22.46;60.14;100254.00;5063720;27;45398;-57
2022/08/17 02:10:54;;;;;;;;;19.75;16.00;;;;;22.45;60.26;100257.69;5066558;28;45520;-59
2022/08/17 02:13:19;;;;;;;;;25.00;19.25;;;;;22.45;59.85;100254.13;5065388;28;45422;-57
2022/08/17 02:15:45;;;;;;;;;22.25;19.50;;;;;22.41;60.01;100250.88;5074319;27;45499;-57
2022/08/17 02:18:11;;;;;;;;;27.75;21.00;;;;;22.41;60.26;100250.06;5071727;28;45286;-57
2022/08/17 02:20:37;;;;;;;;;21.75;20.50;;;;;22.37;60.47;100247.63;5078309;27;45267;-57
2022/08/17 02:23:04;;;;;;;;;23.50;20.00;;;;;22.40;60.27;100248.34;5079695;27;46182;-57
2022/08/17 02:25:31;;;;;;;;;20.50;18.75;;;;;22.39;60.30;100246.69;5077006;27;45811;-58
2022/08/17 02:27:57;;;;;;;;;23.50;19.75;;;;;22.39;60.36;100242.19;5068677;28;45359;-54
2022/08/17 02:30:23;;;;;;;;;18.25;17.00;;;;;22.40;60.37;100243.88;5074629;27;70930;-57
2022/08/17 02:32:51;;;;;;;;;22.25;18.25;;;;;22.40;60.11;100241.22;5062844;27;45328;-58
2022/08/17 02:35:16;;;;;;;;;19.25;15.75;;;;;22.37;59.79;100242.31;5065740;27;45245;-57
2022/08/17 02:37:41;;;;;;;;;22.25;18.50;;;;;22.36;60.21;100243.31;5092092;27;45257;-57
2022/08/17 02:40:07;;;;;;;;;23.75;17.25;;;;;22.39;60.25;100254.69;5073721;28;57513;-58
2022/08/17 02:42:39;;;;;;;;;17.25;16.75;;;;;22.39;60.21;100257.34;5063158;28;46173;-57
2022/08/17 02:45:12;;;;;;;;;19.25;14.50;;;;;22.39;59.74;100260.84;5066033;28;45779;-57
2022/08/17 02:47:39;;;;;;;;;22.50;17.75;;;;;22.40;60.07;100259.88;5071212;27;45371;-57
2022/08/17 02:50:05;;;;;;;;;19.50;15.75;;;;;22.39;59.81;100260.00;5074764;28;45245;-58
2022/08/17 02:52:36;;;;;;;;;19.50;17.75;;;;;22.37;60.24;100266.31;5062440;28;46195;-57
2022/08/17 02:55:03;;;;;;;;;17.75;14.00;;;;;22.37;59.93;100260.97;5069380;27;45768;-56
2022/08/17 02:57:29;;;;;;;;;20.75;17.25;;;;;22.39;59.92;100260.84;5073614;27;45285;-57
2022/08/17 02:59:54;;;;;;;;;16.75;16.00;;;;;22.40;59.76;100262.53;5078398;27;69356;-57
2022/08/17 03:02:19;;;;;;;;;23.50;18.25;;;;;22.41;59.84;100258.06;5064962;27;74528;-56
2022/08/17 03:04:45;;;;;;;;;24.50;17.25;;;;;22.42;59.96;100257.94;5058648;28;73345;-57
2022/08/17 03:07:10;;;;;;;;;18.25;17.50;;;;;22.41;59.73;100242.88;5073246;28;60003;-57
2022/08/17 03:09:36;;;;;;;;;19.75;17.75;;;;;22.42;59.77;100239.25;5069058;27;45390;-57
2022/08/17 03:12:19;;;;;;;;;20.50;16.75;;;;;22.43;59.64;100238.28;5069348;27;46154;-57
2022/08/17 03:14:45;;;;;;;;;24.25;17.75;;;;;22.44;60.28;100233.81;5065727;28;45738;-57
2022/08/17 03:17:11;;;;;;;;;18.75;18.75;;;;;22.42;59.50;100227.75;5066252;28;59327;-58
2022/08/17 03:19:36;;;;;;;;;20.50;18.50;;;;;22.43;59.87;100232.09;5069557;28;45191;-58
2022/08/17 03:22:04;;;;;;;;;18.25;15.00;;;;;22.45;59.71;100232.81;5076002;27;45238;-58
2022/08/17 03:24:30;;;;;;;;;17.75;16.50;;;;;22.47;59.81;100228.19;5070599;28;45976;-57
2022/08/17 03:26:55;;;;;;;;;20.75;16.00;;;;;22.47;59.88;100226.38;5089994;27;45543;-57
2022/08/17 03:29:20;;;;;;;;;13.00;12.50;;;;;22.48;59.35;100225.38;5073817;27;60533;-56
2022/08/17 03:31:46;;;;;;;;;16.50;15.00;;;;;22.50;59.44;100222.59;5072630;27;69395;-57
2022/08/17 03:34:13;;;;;;;;;18.75;16.00;;;;;22.51;59.71;100219.81;5082500;27;45378;-57
2022/08/17 03:36:38;;;;;;;;;19.25;15.25;;;;;22.52;59.74;100220.63;5080233;27;45225;-57
2022/08/17 03:39:03;;;;;;;;;15.25;15.25;;;;;22.50;59.56;100210.09;5065062;28;58807;-57
2022/08/17 03:41:29;;;;;;;;;18.00;15.75;;;;;22.51;59.33;100210.97;5071563;27;46820;-57
2022/08/17 03:43:54;;;;;;;;;14.00;13.25;;;;;22.51;59.34;100214.47;5082387;27;45212;-58
2022/08/17 03:57:17;;;;;;;;;14.50;14.50;;;;;22.50;59.03;100222.59;5076851;27;45421;-57
2022/08/17 03:59:43;;;;;;;;;18.00;17.00;;;;;22.48;59.13;100224.56;5074980;28;45279;-57
2022/08/17 04:02:17;;;;;;;;;17.25;13.25;;;;;22.49;59.34;100229.75;5086790;27;46217;-57
2022/08/17 04:04:43;;;;;;;;;14.75;12.75;;;;;22.50;59.01;100241.25;5063996;27;45818;-57
2022/08/17 04:07:09;;;;;;;;;16.25;13.50;;;;;22.50;58.64;100242.09;5087219;27;62859;-58
2022/08/17 04:09:35;;;;;;;;;13.50;13.00;;;;;22.51;58.83;100248.31;5067145;27;69885;-58
2022/08/17 04:12:00;;;;;;;;;17.75;15.75;;;;;22.49;59.35;100251.09;5073824;28;45400;-57
2022/08/17 04:14:26;;;;;;;;;18.25;14.00;;;;;22.50;59.03;100258.09;5068472;28;45212;-57
2022/08/17 04:16:51;;;;;;;;;17.50;16.75;;;;;22.52;58.83;100255.31;5066823;28;66957;-57
2022/08/17 04:19:16;;;;;;;;;18.50;14.00;;;;;22.52;58.78;100256.19;5076036;27;67348;-57
2022/08/17 04:21:42;;;;;;;;;22.00;18.75;;;;;22.53;59.36;100255.19;5076846;27;50620;-57
2022/08/17 04:24:07;;;;;;;;;19.50;15.50;;;;;22.55;59.41;100257.72;5080876;27;66860;-57
2022/08/17 04:26:32;;;;;;;;;18.25;14.75;;;;;22.56;59.43;100254.94;5071793;27;60850;-57
2022/08/17 04:28:58;;;;;;;;;16.00;15.00;;;;;22.59;58.86;100261.81;5077044;27;45314;-57
2022/08/17 04:31:25;;;;;;;;;16.25;15.25;;;;;22.60;58.86;100257.34;5067365;28;45585;-57
2022/08/17 04:33:51;;;;;;;;;20.00;19.00;;;;;22.62;59.31;100258.06;5068061;27;45371;-57
2022/08/17 04:36:16;;;;;;;;;19.25;17.25;;;;;22.61;58.85;100259.88;5075516;27;61735;-57
2022/08/17 04:38:43;;;;;;;;;18.25;14.75;;;;;22.63;59.14;100265.06;5070064;27;59269;-57
2022/08/17 04:43:57;;;;;;;;;18.00;14.75;;;;;22.63;59.09;100257.06;5064971;28;45387;-57
2022/08/17 04:46:25;;;;;;;;;17.25;14.75;;;;;22.63;58.49;100251.72;5077707;27;45451;-57
2022/08/17 04:48:53;;;;;;;;;18.75;16.00;;;;;22.64;58.40;100253.44;5088231;27;45392;-57
2022/08/17 04:51:28;;;;;;;;;17.50;16.50;;;;;22.63;58.36;100252.59;5087563;27;45243;-57
2022/08/17 04:53:57;;;;;;;;;19.00;14.00;;;;;22.63;58.44;100246.38;5077860;27;45956;-58
2022/08/17 04:56:24;;;;;;;;;19.00;15.75;;;;;22.62;58.36;100250.88;5073449;27;45470;-56
2022/08/17 04:58:52;;;;;;;;;15.25;15.00;;;;;22.61;58.79;100240.34;5072250;27;45297;-57
2022/08/17 05:01:20;;;;;;;;;18.75;16.75;;;;;22.60;58.57;100234.19;5075311;28;46300;-56
2022/08/17 05:03:45;;;;;;;;;17.75;15.75;;;;;22.61;58.66;100241.22;5071810;28;45721;-56
2022/08/17 05:06:10;;;;;;;;;20.75;14.50;;;;;22.61;58.66;100240.34;5076308;27;46294;-57
2022/08/17 05:08:36;;;;;;;;;19.00;17.25;;;;;22.58;58.72;100233.47;5064254;28;45551;-58
2022/08/17 05:11:01;;;;;;;;;16.25;15.50;;;;;22.55;58.56;100229.22;5080438;27;57170;-57
2022/08/17 05:13:30;;;;;;;;;21.50;19.00;;;;;22.51;58.07;100235.81;5073244;27;45343;-57
2022/08/17 05:15:58;;;;;;;;;16.50;14.25;;;;;22.46;58.49;100230.00;5077022;27;45359;-57
2022/08/17 05:18:23;;;;;;;;;19.00;17.00;;;;;22.42;58.50;100223.25;5065987;28;45223;-57
2022/08/17 05:20:49;;;;;;;;;18.75;15.75;;;;;22.41;58.63;100231.38;5075441;27;46047;-58
2022/08/17 05:23:16;;;;;;;;;16.75;14.50;;;;;22.41;58.33;100242.06;5064729;28;73312;-57
2022/08/17 05:25:45;;;;;;;;;19.50;17.00;;;;;22.41;58.71;100244.72;5067847;27;45359;-58
2022/08/17 05:28:10;;;;;;;;;20.50;19.00;;;;;22.41;58.85;100237.56;5066758;28;45424;-58
2022/08/17 05:30:37;;;;;;;;;17.50;16.50;;;;;22.40;59.07;100232.34;5068109;28;74814;-58
2022/08/17 05:33:06;;;;;;;;;18.75;16.75;;;;;22.36;58.73;100232.63;5074364;28;45907;-56
2022/08/17 05:35:34;;;;;;;;;19.00;16.25;;;;;22.31;58.51;100234.84;5079168;27;45293;-57
2022/08/17 05:38:00;;;;;;;;;19.00;15.25;;;;;22.26;58.99;100237.00;5078028;27;45375;-56
2022/08/17 05:40:26;;;;;;;;;19.00;16.75;;;;;22.21;58.98;100239.22;5079050;27;45442;-57
2022/08/17 05:43:06;;;;;;;;;22.00;19.75;;;;;22.17;59.07;100229.78;5078989;27;45434;-57
2022/08/17 05:45:32;;;;;;;;;21.50;20.00;;;;;22.16;58.85;100226.25;5073117;27;45212;-57
2022/08/17 05:47:57;;;;;;;;;20.50;18.00;;;;;22.14;59.59;100232.72;5076987;28;45226;-57
2022/08/17 05:50:30;;;;;;;;;21.25;21.00;;;;;22.14;59.21;100232.72;5069808;28;46442;-57
2022/08/17 05:52:55;;;;;;;;;18.50;15.25;;;;;22.17;59.68;100235.97;5076435;28;45390;-57
2022/08/17 05:55:38;;;;;;;;;20.00;17.00;;;;;22.21;59.57;100230.38;5069302;28;45242;-56
2022/08/17 05:58:23;;;;;;;;;24.25;20.00;;;;;22.25;59.30;100234.47;5070019;28;45386;-57
2022/08/17 06:01:00;;;;;;;;;22.75;17.00;;;;;22.28;59.28;100226.25;5074234;27;47318;-56
2022/08/17 06:03:31;;;;;;;;;21.50;19.75;;;;;22.33;59.43;100221.38;5062160;28;45224;-57
2022/08/17 06:06:18;;;;;;;;;21.50;19.25;;;;;22.36;59.67;100215.78;5063325;28;45554;-55
2022/08/17 06:08:56;;;;;;;;;20.25;18.00;;;;;22.39;59.43;100215.53;5073716;28;45347;-56
2022/08/17 06:11:28;;;;;;;;;23.75;23.00;;;;;22.40;59.05;100219.03;5077595;28;45415;-57
2022/08/17 06:14:02;;;;;;;;;29.25;29.00;;;;;22.40;59.02;100214.56;5078672;27;45277;-58
2022/08/17 06:16:35;;;;;;;;;26.75;22.25;;;;;22.41;59.25;100208.22;5078828;27;45455;-57
2022/08/17 06:19:19;;;;;;;;;27.25;23.50;;;;;22.42;59.13;100217.94;5079723;27;45364;-57
2022/08/17 06:21:50;;;;;;;;;26.25;24.00;;;;;22.44;59.32;100220.47;5071736;27;46555;-57
2022/08/17 06:24:31;;;;;;;;;24.75;21.25;;;;;22.47;59.13;100234.38;5089402;27;45698;-57
2022/08/17 06:27:05;;;;;;;;;27.75;22.75;;;;;22.48;58.95;100243.22;5085089;27;45364;-58
2022/08/17 06:29:42;;;;;;;;;23.00;20.25;;;;;22.51;59.05;100261.63;5077294;27;45548;-57
2022/08/17 06:32:09;;;;;;;;;21.50;18.75;;;;;22.54;58.71;100266.69;5071782;28;45690;-58
2022/08/17 06:34:37;;;;;;;;;36.00;31.50;;;;;22.55;59.31;100268.38;5079453;28;45281;-58
2022/08/17 06:37:09;;;;;;;;;35.75;31.50;;;;;22.57;58.84;100279.78;5078401;27;45353;-56
2022/08/17 06:39:49;;;;;;;;;27.00;24.25;;;;;22.61;59.19;100286.56;5070271;28;45212;-56
2022/08/17 06:42:43;;;;;;;;;21.75;20.00;;;;;22.62;59.04;100285.56;5061502;28;46249;-57
2022/08/17 06:45:11;;;;;;;;;18.00;18.00;;;;;22.63;58.84;100286.41;5076159;27;45836;-57
2022/08/17 06:47:43;;;;;;;;;18.25;16.75;;;;;22.64;59.04;100296.94;5079577;27;45346;-57
2022/08/17 06:50:26;;;;;;;;;21.00;19.75;;;;;22.60;58.76;100292.00;5084991;27;45380;-57
2022/08/17 06:52:59;;;;;;;;;19.50;17.75;;;;;22.56;59.10;100283.44;5074113;27;45475;-58
2022/08/17 06:55:45;;;;;;;;;19.00;18.25;;;;;22.56;58.41;100283.44;5072610;28;45728;-57
2022/08/17 06:58:13;;;;;;;;;17.00;16.00;;;;;22.54;59.20;100291.56;5061319;28;45463;-57
2022/08/17 07:00:44;;;;;;;;;22.50;20.00;;;;;22.53;58.92;100289.84;5076958;27;45350;-57
2022/08/17 07:03:25;;;;;;;;;18.75;17.00;;;;;22.55;58.93;100285.22;5068115;28;47192;-58
2022/08/17 07:05:54;;;;;;;;;21.00;20.25;;;;;22.57;58.73;100285.09;5083322;27;45344;-57
2022/08/17 07:08:38;;;;;;;;;23.00;20.00;;;;;22.61;58.85;100291.03;5082884;28;45390;-57
2022/08/17 07:11:07;;;;;;;;;23.25;20.50;;;;;22.64;58.95;100290.78;5082969;27;45260;-57
2022/08/17 07:13:43;;;;;;;;;26.25;21.25;;;;;22.65;58.93;100295.97;5083133;27;45450;-57
2022/08/17 07:16:19;;;;;;;;;29.50;23.50;;;;;22.69;58.85;100300.06;5075386;27;45366;-57
2022/08/17 07:18:45;;;;;;;;;24.50;21.50;;;;;22.68;59.00;100302.84;5075511;27;45355;-57
2022/08/17 07:21:36;;;;;;;;;25.25;22.25;;;;;22.68;58.81;100309.06;5075798;28;45380;-57
2022/08/17 07:24:36;;;;;;;;;23.25;22.00;;;;;22.71;58.74;100313.28;5080725;27;46971;-59
2022/08/17 07:27:27;;;;;;;;;23.25;21.25;;;;;22.68;58.71;100322.41;5081761;27;45859;-57
2022/08/17 07:29:56;;;;;;;;;23.25;21.00;;;;;22.70;58.86;100332.91;5070324;28;45549;-56
2022/08/17 07:32:30;;;;;;;;;19.00;17.50;;;;;22.70;58.92;100344.44;5084381;27;45170;-57
2022/08/17 07:35:07;;;;;;;;;26.75;19.75;;;;;22.69;58.44;100347.25;5074559;27;47005;-57
2022/08/17 07:37:35;;;;;;;;;21.50;18.75;;;;;22.69;58.29;100353.41;5074470;27;45323;-56
2022/08/17 07:40:21;;;;;;;;;24.25;21.00;;;;;22.70;58.83;100368.47;5084746;27;45437;-57
2022/08/17 07:43:13;;;;;;;;;19.75;18.00;;;;;22.74;58.68;100371.72;5073860;28;45339;-56
2022/08/17 07:48:37;;;;;;;;;15.00;15.00;;;;;22.79;58.72;100381.97;5077743;27;45750;-57
2022/08/17 07:51:14;;;;;;;;;19.25;17.00;;;;;22.77;58.35;100379.47;5072414;28;45395;-57
2022/08/17 07:53:40;;;;;;;;;17.75;15.00;;;;;22.75;58.65;100378.72;5082829;27;45347;-57
2022/08/17 07:56:06;;;;;;;;;18.75;17.75;;;;;22.73;58.42;100378.88;5074683;27;46187;-57
2022/08/17 07:58:31;;;;;;;;;16.00;14.00;;;;;22.70;58.48;100365.78;5092517;27;45309;-57
2022/08/17 08:01:08;;;;;;;;;18.50;17.25;;;;;22.69;58.67;100377.41;5085365;27;69170;-56
2022/08/17 08:03:40;;;;;;;;;17.00;17.00;;;;;22.68;58.39;100370.41;5074983;27;45260;-58
2022/08/17 08:06:23;;;;;;;;;17.25;16.00;;;;;22.70;58.50;100378.25;5078863;27;47513;-57
2022/08/17 08:08:53;;;;;;;;;15.00;12.75;;;;;22.70;58.39;100378.25;5068920;28;46071;-57
2022/08/17 08:11:35;;;;;;;;;16.25;15.50;;;;;22.69;58.38;100382.75;5086013;27;45393;-57
2022/08/17 08:14:23;;;;;;;;;17.00;14.25;;;;;22.69;58.69;100388.09;5078356;28;45588;-58
2022/08/17 08:16:58;;;;;;;;;21.50;15.00;;;;;22.66;58.53;100391.00;5076494;27;46163;-58
2022/08/17 08:19:24;;;;;;;;;14.25;14.25;;;;;22.64;58.40;100386.78;5074815;27;45404;-57
2022/08/17 08:22:05;;;;;;;;;20.75;16.25;;;;;22.62;59.36;100400.25;5077474;28;45633;-56
2022/08/17 08:24:43;;;;;;;;;22.25;18.00;;;;;22.61;59.52;100405.72;5050372;28;45398;-56
2022/08/17 08:27:14;;;;;;;;;17.25;15.75;;;;;22.59;59.94;100405.84;5067584;27;47158;-56
2022/08/17 08:29:52;;;;;;;;;18.75;17.50;;;;;22.59;60.41;100402.31;5080121;27;45838;-56
2022/08/17 08:32:39;;;;;;;;;21.75;19.25;;;;;22.58;60.21;100416.66;5076580;27;45580;-57
2022/08/17 08:35:30;;;;;;;;;15.75;15.50;;;;;22.59;60.35;100408.50;5067851;28;45612;-56
2022/08/17 08:38:28;;;;;;;;;23.75;18.00;;;;;22.59;59.89;100402.31;5071386;27;46192;-57
2022/08/17 08:40:59;;;;;;;;;23.25;18.50;;;;;22.58;59.86;100398.81;5072857;27;45815;-56
2022/08/17 08:43:49;;;;;;;;;19.50;17.75;;;;;22.59;60.31;100389.81;5076770;27;45346;-56
2022/08/17 08:46:28;;;;;;;;;22.75;19.00;;;;;22.59;60.51;100392.50;5068909;28;45331;-56
2022/08/17 08:49:31;;;;;;;;;25.00;18.75;;;;;22.59;60.52;100405.84;5063798;28;45354;-56
2022/08/17 08:52:01;;;;;;;;;19.00;17.75;;;;;22.60;60.69;100404.88;5072584;28;45799;-57
2022/08/17 08:54:47;;;;;;;;;21.00;18.00;;;;;22.63;60.52;100399.28;5081072;27;45437;-56
2022/08/17 08:57:20;;;;;;;;;22.00;20.50;;;;;22.67;60.28;100402.53;5070230;27;45244;-57
2022/08/17 09:00:12;;;;;;;;;21.75;19.50;;;;;22.68;60.35;100405.09;5075852;27;46540;-56
2022/08/17 09:02:46;;;;;;;;;19.00;18.50;;;;;22.72;59.76;100403.00;5067712;28;45760;-56
2022/08/17 09:05:14;;;;;;;;;23.50;18.25;;;;;22.73;60.15;100402.88;5070808;27;45910;-56
2022/08/17 09:07:58;;;;;;;;;20.50;20.50;;;;;22.77;60.25;100402.59;5066348;27;45447;-57
2022/08/17 09:10:30;;;;;;;;;21.25;18.75;;;;;22.80;60.30;100411.19;5075597;28;45477;-57
2022/08/17 09:13:14;;;;;;;;;26.50;19.00;;;;;22.85;60.37;100408.16;5078264;27;45829;-56
2022/08/17 09:15:45;;;;;;;;;21.25;19.50;;;;;22.87;59.93;100408.88;5078053;27;45420;-57
2022/08/17 09:18:25;;;;;;;;;19.00;19.00;;;;;22.88;60.30;100403.41;5071412;27;45401;-57
2022/08/17 09:21:05;;;;;;;;;25.50;21.00;;;;;22.86;60.18;100389.34;5075218;28;45519;-57
2022/08/17 09:23:43;;;;;;;;;22.25;20.00;;;;;22.89;59.91;100396.25;5075343;27;45538;-57
2022/08/17 09:26:16;;;;;;;;;22.25;19.25;;;;;22.89;60.18;100401.56;5064838;28;45291;-57
2022/08/17 09:28:47;;;;;;;;;24.00;22.75;;;;;22.87;59.76;100395.53;5079226;27;45465;-56
2022/08/17 09:31:27;;;;;;;;;23.50;20.00;;;;;22.88;60.40;100400.75;5071544;27;46167;-56
2022/08/17 09:33:56;;;;;;;;;24.00;20.75;;;;;22.86;60.00;100408.03;5071280;27;45920;-56
2022/08/17 09:36:26;;;;;;;;;23.00;22.25;;;;;22.85;59.66;100405.50;5079400;27;45248;-55
2022/08/17 09:39:05;;;;;;;;;24.50;18.25;;;;;22.82;59.68;100403.06;5072820;27;45602;-57
2022/08/17 09:41:46;;;;;;;;;19.50;18.00;;;;;22.82;59.37;100408.41;5068832;27;45285;-57
2022/08/17 09:44:38;;;;;;;;;25.75;20.75;;;;;22.83;59.29;100394.94;5069742;28;45788;-56
2022/08/17 09:47:14;;;;;;;;;23.50;22.25;;;;;22.85;59.23;100397.47;5086413;27;45401;-56
2022/08/17 09:49:46;;;;;;;;;30.25;22.25;;;;;22.87;59.87;100401.69;5079412;27;45314;-56
2022/08/17 09:52:21;;;;;;;;;28.25;19.75;;;;;22.87;59.10;100417.72;5078334;27;48314;-56
2022/08/17 09:54:47;;;;;;;;;23.50;21.75;;;;;22.88;58.93;100418.59;5080135;27;45752;-55
2022/08/17 09:57:22;;;;;;;;;24.25;20.00;;;;;22.89;58.96;100425.59;5069912;27;45354;-55
2022/08/17 09:59:59;;;;;;;;;20.50;18.75;;;;;22.87;58.80;100428.38;5096327;27;45283;-56
2022/08/17 10:02:30;;;;;;;;;19.75;16.00;;;;;22.86;59.23;100428.50;5092006;27;45420;-56
2022/08/17 10:05:12;;;;;;;;;20.25;19.75;;;;;22.87;59.05;100441.72;5071676;28;45275;-57
2022/08/17 10:07:44;;;;;;;;;24.00;20.00;;;;;22.90;59.03;100438.81;5065561;28;45498;-56
2022/08/17 10:10:57;;;;;;;;;22.75;21.75;;;;;22.94;58.97;100450.06;5069395;27;45374;-56
2022/08/17 10:13:43;;;;;;;;;19.50;18.50;;;;;22.96;59.03;100448.13;5067308;28;47010;-56
2022/08/17 10:16:34;;;;;;;;;26.50;24.00;;;;;22.98;58.88;100446.16;5074512;28;45383;-57
2022/08/17 10:19:06;;;;;;;;;27.50;24.50;;;;;23.01;58.77;100445.91;5080345;27;45225;-57
2022/08/17 10:27:18;;;;;;;;;30.50;26.25;;;;;23.11;58.56;100449.53;5075624;27;45776;-56
2022/08/17 10:29:55;;;;;;;;;28.50;23.25;;;;;23.14;58.99;100451.09;5055950;28;45465;-56
2022/08/17 10:32:30;;;;;;;;;25.50;25.00;;;;;23.18;58.80;100449.00;5083463;27;45432;-56
2022/08/17 10:35:11;;;;;;;;;31.75;25.25;;;;;23.21;58.66;100448.75;5074752;27;46860;-56
2022/08/17 10:37:47;;;;;;;;;41.25;35.00;;;;;23.24;58.35;100446.66;5077160;27;45395;-57
2022/08/17 10:40:31;;;;;;;;;28.50;26.00;;;;;23.26;58.64;100451.88;5078440;27;45258;-56
2022/08/17 10:43:23;;;;;;;;;32.75;26.50;;;;;23.28;58.23;100445.44;5077888;27;45720;-56
2022/08/17 10:46:01;;;;;;;;;26.00;23.50;;;;;23.28;58.02;100433.91;5067077;28;46367;-56
2022/08/17 10:48:35;;;;;;;;;23.75;23.75;;;;;23.27;58.34;100427.72;5073148;28;45413;-56
2022/08/17 10:51:33;;;;;;;;;29.50;26.25;;;;;23.27;57.89;100430.41;5076652;27;45258;-56
2022/08/17 10:54:00;;;;;;;;;22.50;22.25;;;;;23.25;58.28;100435.03;5072760;27;45489;-55
2022/08/17 10:56:41;;;;;;;;;29.25;24.50;;;;;23.27;57.83;100441.06;5077353;28;46868;-55
2022/08/17 10:59:07;;;;;;;;;26.75;24.75;;;;;23.28;57.82;100448.13;5074259;28;45361;-57
2022/08/17 11:01:32;;;;;;;;;31.00;29.00;;;;;23.30;58.03;100443.50;5077679;27;45299;-59
2022/08/17 11:04:05;;;;;;;;;27.50;25.00;;;;;23.33;57.61;100445.03;5068764;27;45490;-54
2022/08/17 11:06:50;;;;;;;;;29.75;25.75;;;;;23.36;58.08;100451.97;5070137;28;46240;-54
2022/08/17 11:09:44;;;;;;;;;25.25;21.00;;;;;23.41;58.03;100437.22;5078473;28;45798;-55
2022/08/17 11:12:12;;;;;;;;;23.25;20.75;;;;;23.48;57.71;100441.06;5070919;27;45299;-56
2022/08/17 11:14:53;;;;;;;;;27.00;26.00;;;;;23.55;57.64;100440.53;5078296;27;45402;-56
2022/08/17 11:17:48;;;;;;;;;29.50;24.50;;;;;23.61;57.98;100448.84;5074776;27;46573;-56
2022/08/17 11:20:46;;;;;;;;;30.00;28.00;;;;;23.69;57.77;100437.50;5068033;28;45343;-58
2022/08/17 11:23:32;;;;;;;;;33.75;28.00;;;;;23.78;57.62;100428.69;5073115;27;45505;-56
2022/08/17 11:26:07;;;;;;;;;31.50;27.50;;;;;23.81;57.59;100423.09;5069604;27;45515;-54
2022/08/17 11:28:44;;;;;;;;;30.75;26.00;;;;;23.88;57.27;100426.06;5075642;28;45441;-56
2022/08/17 11:31:27;;;;;;;;;30.00;29.00;;;;;23.93;56.95;100423.00;5073848;28;45878;-56
2022/08/17 11:33:56;;;;;;;;;30.75;28.50;;;;;23.96;56.86;100418.22;5067497;27;45149;-55
2022/08/17 11:36:25;;;;;;;;;31.25;25.50;;;;;23.99;56.75;100430.47;5078705;27;45445;-56
2022/08/17 11:39:18;;;;;;;;;31.00;28.75;;;;;24.06;56.40;100439.63;5061761;27;46315;-56
2022/08/17 11:41:52;;;;;;;;;34.00;26.50;;;;;24.14;56.49;100438.97;5064735;28;45300;-55
2022/08/17 11:44:36;;;;;;;;;29.50;24.00;;;;;24.26;56.48;100441.38;5072820;28;45338;-56
2022/08/17 11:53:02;;;;;;;;;30.75;27.25;;;;;24.69;55.47;100435.84;5071237;28;45315;-56
2022/08/17 11:55:30;;;;;;;;;28.00;26.25;;;;;24.80;55.47;100438.38;5081128;27;45224;-56
2022/08/17 11:58:22;;;;;;;;;31.25;27.75;;;;;24.92;55.53;100439.91;5070145;27;46480;-56
2022/08/17 12:01:03;;;;;;;;;27.00;26.50;;;;;24.99;54.62;100434.84;5065436;27;46310;-55
2022/08/17 12:03:32;;;;;;;;;32.25;27.25;;;;;25.04;54.76;100429.91;5078255;28;45281;-57